Airfield :
LOGIN :

Register | Disclaimer

   EN    FR    IT 

 










Legend :    VFR   Marginal VFR   IFR   Intensive IFR   Very Intensive IFR
Visi :
Ceiling :
>= 8 km
>= 3000ft
5 to 8 km
1000 to 3000 ft
1500m to 5 km
500 to 1000 ft
800 to 1500m
200 to 500 ft
< 800m
< 200 ft
Symbols :   Thunderstorms  Fog  Heavy snow  Heavy precipitations  Wind > 20 kt
SIGMETs :     Misc.  Thunderstorms  Icing  Turbulence  Mountain Waves  Volcanic Ashes






- Airport Elevation : 18 ft
- IATA code : AJA


LFKJ - Ajaccio

CURRENT METAR :
  • 281930Z AUTO VRB02KT 8000 -RA FEW045/// BKN060/// OVC074/// ///TCU 12/11 Q1007 TEMPO 14020G30KT 4000 TSRA SCT010 BKN020 SCT025CB

EXPIRED METARs :
  • 281900Z AUTO 08004KT 9999 -RA FEW064/// OVC080/// ///CB 12/11 Q1006 TEMPO 14020G30KT 4000 TSRA
  • 281830Z AUTO 06004KT 030V090 9999 SCT094/// OVC140/// ///CB 12/11 Q1006 TEMPO 14020G30KT 4000 TSRA
  • 281800Z AUTO 05004KT 020V080 9999 -RA FEW068/// OVC082/// ///CB 12/11 Q1006 TEMPO 14020G30KT 4000 TSRA
  • 281730Z AUTO VRB03KT 9999 -RA BKN084/// OVC100/// ///CB 12/11 Q1007 TEMPO 14020G30KT 4000 TSRA
  • 281700Z AUTO 03005KT 360V060 9999 -RA BKN076/// OVC092/// ///TCU 13/11 Q1007 TEMPO 14020G30KT 4000 TSRA SCT010 BKN020 SCT025CB
  • 281630Z AUTO 05004KT 010V090 9999 -RA BKN068/// OVC082/// ///CB 13/11 Q1008 TEMPO 14020G30KT 4000 TSRA

TAF TAF LFKJ
Valid from the 28 at 15:00 until the 29 at 15:00 UTC


281400Z 2815/2915 09010KT 9999 SCT020 BKN050
TEMPO 2815/2822 RA SCT015 BKN030 SCT033CB
PROB30
TEMPO 2817/2822 14020G30KT 4000 TSRA SCT010 BKN020 SCT025CB
BECMG 2820/2822 VRB03KT
BECMG 2906/2908 CAVOK
BECMG 2910/2912 20005KT
ATIS : +33 4 95 23 59 85



MET'MAP, your aeronautical weather chart ! - Copyright ORBIFLY December 2007 - Disclaimer

ORBIFLY MET'MAP TEAM :

Programming & Development : Alexandra Zaïnal
Concept & original design : Baudouin d'Aumeries
Assistance for programming : Marc-Olivier Méhu
Technical & hardware support : Manuel Goepfert

Contact : metmap@orbifly.com




SOURCES & CREDITS :

   NOAA